PAFA/FAI METAR and TAF weather

Enter ICAO airport designator
Station Type Date Time Source
PAFA METAR 2020/06/05 23:53 UTC NOAA

PAFA 052353Z 36005KT 10SM SCT060CB BKN110 BKN200 21/03 A2984 RMK AO2 SLP108 CB NE S W-NW MOV SW 60000 T02110028 10211 20150 55007


Station Type Date Time Source
PAFA Decoded METAR 2020/06/05 23:53 UTC NOAA

Fairbanks, Fairbanks International Airport, AK, United States (PAFA) 64-48-14N 147-52-34W 140M
Jun 05, 2020 - 07:53 PM EDT / 2020.06.05 2353 UTC
Wind: from the N (360 degrees) at 6 MPH (5 KT):0
Visibility: 10 mile(s):0
Sky conditions: mostly cloudy
Weather: Cumulonimbus clouds observed
Temperature: 70.0 F (21.1 C)
Dew Point: 37.0 F (2.8 C)
Relative Humidity: 29%
Pressure (altimeter): 29.84 in. Hg (1010 hPa)
Pressure tendency: 0.02 inches (0.7 hPa) lower than three hours ago
ob: PAFA 052353Z 36005KT 10SM SCT060CB BKN110 BKN200 21/03 A2984 RMK AO2 SLP108 CB NE S W-NW MOV SW 60000 T02110028 10211 20150 55007
cycle: 0

Station Type Date Time Source
PAFA TAF 2020/06/05 18:42 UTC NOAA

TAF TAF PAFA 051738Z 0518/0624 VRB03KT P6SM FEW050 FEW110
FM052300 06005KT P6SM VCTS FEW025 BKN050CB BKN100
FM060800 VRB04KT P6SM VCSH SCT050
FM062300 06004KT P6SM VCTS FEW025 SCT050CB BKN100

Example: see airport list